Time;durP1;ratioP1;P1;durP2;ratioP2;P2;SDS_P1;SDS_P2;PMS_P1;PMS_P2;Temp;Humidity;BMP_temperature;BMP_pressure;BME280_temperature;BME280_humidity;BME280_pressure;Samples;Min_cycle;Max_cycle;Signal;HPM_P1;HPM_P2
2023/08/16 00:02:07;;;;;;;5.87;3.43;;;21.10;84.00;;;;;;5010308;28;20044;-70
2023/08/16 00:04:33;;;;;;;7.63;3.50;;;21.00;85.70;;;;;;5013071;28;20041;-69
2023/08/16 00:06:59;;;;;;;5.13;3.40;;;20.80;85.00;;;;;;5008211;28;20030;-65
2023/08/16 00:09:25;;;;;;;4.70;3.30;;;21.00;83.10;;;;;;5013758;28;20041;-70
2023/08/16 00:11:51;;;;;;;7.65;3.10;;;21.30;82.30;;;;;;5019366;28;20284;-71
2023/08/16 00:14:17;;;;;;;5.05;3.50;;;21.10;83.50;;;;;;5017787;28;20096;-68
2023/08/16 00:16:43;;;;;;;;;;;21.00;84.40;;;;;;5005843;28;20085;-71
2023/08/16 00:19:08;;;;;;;10.45;2.95;;;20.80;85.50;;;;;;5003281;28;20341;-68
2023/08/16 00:21:34;;;;;;;4.73;3.10;;;20.80;86.20;;;;;;5019392;28;20686;-72
2023/08/16 00:23:59;;;;;;;9.53;3.47;;;20.60;86.00;;;;;;5015284;28;20029;-71
2023/08/16 00:26:25;;;;;;;5.60;3.23;;;20.60;87.80;;;;;;5015072;28;20033;-72
2023/08/16 00:28:51;;;;;;;4.13;3.20;;;20.50;87.40;;;;;;5008247;28;20072;-72
2023/08/16 00:31:16;;;;;;;5.17;3.40;;;20.50;86.50;;;;;;5015406;28;20026;-72
2023/08/16 00:33:42;;;;;;;3.90;3.50;;;20.50;84.90;;;;;;5016142;28;20030;-68
2023/08/16 00:36:08;;;;;;;6.93;3.27;;;20.40;88.60;;;;;;5012823;28;20034;-68
2023/08/16 00:38:34;;;;;;;3.45;2.90;;;20.40;88.90;;;;;;5014980;28;20041;-69
2023/08/16 00:40:59;;;;;;;8.32;3.15;;;20.30;87.60;;;;;;5007534;28;20049;-68
2023/08/16 00:43:25;;;;;;;9.07;3.60;;;20.30;86.00;;;;;;5011598;28;20859;-67
2023/08/16 00:45:51;;;;;;;5.03;3.47;;;20.30;87.10;;;;;;5013910;28;20029;-69
2023/08/16 00:48:18;;;;;;;5.80;3.75;;;20.30;85.70;;;;;;5011090;28;20552;-70
2023/08/16 00:50:45;;;;;;;6.43;4.22;;;20.30;87.30;;;;;;5010675;28;20048;-66
2023/08/16 00:53:13;;;;;;;7.05;3.78;;;20.20;87.50;;;;;;5009354;28;20684;-69
2023/08/16 00:55:39;;;;;;;5.45;3.28;;;20.20;88.50;;;;;;5013297;28;20044;-69
2023/08/16 00:58:05;;;;;;;4.22;3.35;;;20.10;88.60;;;;;;5008577;28;20398;-71
2023/08/16 01:00:31;;;;;;;6.57;2.72;;;20.10;88.80;;;;;;5017017;28;20387;-71
2023/08/16 01:02:57;;;;;;;6.45;3.92;;;20.20;82.60;;;;;;5019411;28;20500;-71
2023/08/16 01:05:23;;;;;;;4.40;3.27;;;20.30;81.10;;;;;;5015429;28;20161;-68
2023/08/16 01:07:49;;;;;;;6.07;3.67;;;20.40;79.20;;;;;;5014875;28;20509;-71
2023/08/16 01:10:15;;;;;;;;;;;20.40;79.00;;;;;;5009413;28;20045;-71
2023/08/16 01:12:49;;;;;;;4.85;3.03;;;20.50;78.80;;;;;;5014153;28;19921;-72
2023/08/16 01:15:18;;;;;;;7.32;3.40;;;20.50;82.00;;;;;;5012452;28;20041;-70
2023/08/16 01:17:44;;;;;;;9.57;3.60;;;20.50;79.90;;;;;;5013149;28;20038;-70
2023/08/16 01:20:12;;;;;;;4.85;3.60;;;20.60;81.10;;;;;;5003822;28;20152;-71
2023/08/16 01:22:57;;;;;;;6.18;3.50;;;20.50;79.40;;;;;;5016424;28;20038;-68
2023/08/16 01:25:39;;;;;;;4.85;3.30;;;20.40;81.00;;;;;;5016035;28;20088;-70
2023/08/16 01:28:06;;;;;;;5.18;3.55;;;20.40;82.30;;;;;;5009028;28;20458;-66
2023/08/16 01:30:32;;;;;;;;;;;20.30;82.10;;;;;;5013628;28;20039;-71
2023/08/16 01:33:08;;;;;;;7.38;3.88;;;20.20;82.70;;;;;;5009411;28;19996;-70
2023/08/16 01:35:35;;;;;;;5.05;3.50;;;20.00;86.20;;;;;;5008233;28;20730;-72
2023/08/16 01:38:02;;;;;;;9.80;3.38;;;20.00;82.70;;;;;;5013892;28;20049;-67
2023/08/16 01:40:34;;;;;;;7.25;3.33;;;20.10;79.70;;;;;;5012085;28;20048;-67
2023/08/16 01:43:01;;;;;;;8.95;3.38;;;20.00;80.40;;;;;;5012588;28;20125;-67
2023/08/16 01:45:28;;;;;;;7.40;3.10;;;20.00;81.30;;;;;;5008271;28;20408;-72
2023/08/16 01:47:56;;;;;;;7.97;3.38;;;20.00;80.80;;;;;;5012852;28;20113;-66
2023/08/16 01:50:23;;;;;;;3.80;3.35;;;20.00;81.10;;;;;;5011495;28;20042;-66
2023/08/16 01:52:49;;;;;;;8.68;3.65;;;19.90;81.10;;;;;;5009895;28;20022;-72
2023/08/16 01:55:14;;;;;;;6.03;3.00;;;19.90;80.50;;;;;;5013199;28;20117;-71
2023/08/16 01:57:40;;;;;;;5.67;3.50;;;19.80;80.90;;;;;;5009740;28;20034;-73
2023/08/16 02:00:06;;;;;;;7.53;2.93;;;19.80;81.40;;;;;;5012693;28;20034;-72
2023/08/16 02:02:32;;;;;;;5.63;3.42;;;19.80;82.50;;;;;;5019758;28;20028;-70
2023/08/16 02:04:57;;;;;;;5.27;3.60;;;19.70;82.40;;;;;;5015982;28;20029;-72
2023/08/16 02:07:23;;;;;;;7.65;3.58;;;19.70;83.40;;;;;;5010538;28;20800;-71
2023/08/16 02:09:49;;;;;;;6.13;3.50;;;19.80;82.80;;;;;;5014032;28;20033;-70
2023/08/16 02:12:14;;;;;;;5.80;3.30;;;19.70;81.20;;;;;;5013278;28;20394;-72
2023/08/16 02:14:40;;;;;;;5.70;3.13;;;19.50;82.40;;;;;;5012958;28;20033;-66
2023/08/16 02:17:05;;;;;;;9.60;3.40;;;19.60;81.90;;;;;;5014640;28;20463;-66
2023/08/16 02:19:31;;;;;;;4.20;3.10;;;19.60;81.90;;;;;;5007720;28;20372;-68
2023/08/16 02:21:56;;;;;;;6.30;3.63;;;19.40;82.40;;;;;;5015977;28;20516;-66
2023/08/16 02:24:22;;;;;;;8.67;3.80;;;19.30;83.40;;;;;;5014017;28;20034;-66
2023/08/16 02:26:47;;;;;;;7.87;3.63;;;19.30;83.00;;;;;;5012982;28;20125;-72
2023/08/16 02:29:13;;;;;;;6.70;3.63;;;19.30;83.00;;;;;;5010502;28;20042;-71
2023/08/16 02:31:39;;;;;;;7.83;3.57;;;19.20;84.30;;;;;;5013612;28;20076;-69
2023/08/16 02:34:04;;;;;;;9.97;4.23;;;19.10;84.40;;;;;;5008161;28;20038;-68
2023/08/16 02:36:30;;;;;;;10.00;3.23;;;19.10;84.50;;;;;;5014173;28;20033;-67
2023/08/16 02:38:55;;;;;;;4.20;2.93;;;19.20;84.00;;;;;;5005857;28;20046;-71
2023/08/16 02:41:21;;;;;;;4.87;3.60;;;19.10;84.00;;;;;;5014031;28;20109;-66
2023/08/16 02:43:46;;;;;;;7.00;3.13;;;19.20;84.20;;;;;;5012453;28;20494;-68
2023/08/16 02:46:12;;;;;;;5.33;3.17;;;19.00;84.20;;;;;;5008521;28;20030;-66
2023/08/16 02:48:37;;;;;;;4.30;3.30;;;19.00;85.40;;;;;;5008826;28;20057;-66
2023/08/16 02:51:03;;;;;;;8.50;3.23;;;19.00;84.80;;;;;;5012961;28;20049;-66
2023/08/16 02:53:29;;;;;;;7.00;3.37;;;19.00;86.50;;;;;;5006716;28;20408;-65
2023/08/16 02:55:54;;;;;;;7.20;3.23;;;19.00;85.30;;;;;;5012428;28;20044;-70
2023/08/16 02:58:20;;;;;;;5.13;3.50;;;19.00;85.00;;;;;;5009638;28;20048;-71
2023/08/16 03:00:51;;;;;;;6.28;2.88;;;19.00;85.50;;;;;;5012916;28;20034;-72
2023/08/16 03:03:17;;;;;;;5.50;3.40;;;19.00;84.60;;;;;;5006776;28;20453;-72
2023/08/16 03:05:43;;;;;;;3.38;3.08;;;19.00;85.40;;;;;;5007133;28;20026;-71
2023/08/16 03:08:08;;;;;;;6.97;3.37;;;19.00;85.40;;;;;;5012089;28;20141;-71
2023/08/16 03:10:34;;;;;;;5.37;3.90;;;19.00;85.40;;;;;;5010262;28;20042;-70
2023/08/16 03:13:00;;;;;;;5.50;3.13;;;18.90;84.90;;;;;;5011309;28;20062;-71
2023/08/16 03:15:25;;;;;;;4.10;2.92;;;18.90;85.00;;;;;;5006594;28;20026;-69
2023/08/16 03:17:51;;;;;;;8.40;3.50;;;18.80;85.90;;;;;;5016418;28;20025;-72
2023/08/16 03:20:17;;;;;;;6.57;3.10;;;18.90;85.30;;;;;;5009606;28;20038;-71
2023/08/16 03:22:42;;;;;;;7.47;3.40;;;18.90;85.50;;;;;;5015966;28;20025;-72
2023/08/16 03:25:08;;;;;;;11.00;3.50;;;18.70;85.70;;;;;;5011506;28;20033;-72
2023/08/16 03:27:34;;;;;;;7.43;3.25;;;18.70;85.90;;;;;;5003002;28;20088;-66
2023/08/16 03:30:00;;;;;;;5.28;3.33;;;18.50;86.80;;;;;;5016410;28;20097;-71
2023/08/16 03:32:25;;;;;;;5.20;3.10;;;18.50;88.90;;;;;;5016732;28;20026;-71
2023/08/16 03:34:51;;;;;;;5.40;3.47;;;18.50;88.60;;;;;;5007539;28;20033;-70
2023/08/16 03:37:16;;;;;;;4.23;3.40;;;18.50;88.40;;;;;;5008908;28;20034;-72
2023/08/16 03:39:42;;;;;;;8.07;3.63;;;18.60;88.80;;;;;;5009019;28;20034;-70
2023/08/16 03:42:08;;;;;;;6.30;3.20;;;18.60;88.50;;;;;;5003628;28;20031;-71
2023/08/16 03:44:33;;;;;;;7.37;3.63;;;18.50;89.00;;;;;;5015296;28;20040;-67
2023/08/16 03:46:59;;;;;;;5.37;2.77;;;18.40;90.00;;;;;;5010693;28;20026;-67
2023/08/16 03:49:25;;;;;;;8.40;3.40;;;18.50;88.80;;;;;;5021213;28;20029;-66
2023/08/16 03:51:51;;;;;;;5.80;3.33;;;18.40;90.20;;;;;;5014606;28;20034;-67
2023/08/16 03:54:16;;;;;;;9.52;3.47;;;18.30;90.50;;;;;;5019938;28;20081;-66
2023/08/16 03:56:42;;;;;;;4.43;3.17;;;18.30;89.60;;;;;;5014532;28;20584;-70
2023/08/16 03:59:07;;;;;;;8.67;3.47;;;18.30;88.80;;;;;;5012107;28;20061;-66
2023/08/16 04:01:33;;;;;;;7.63;3.23;;;18.30;90.30;;;;;;5017987;28;20754;-71
2023/08/16 04:03:59;;;;;;;7.97;3.65;;;18.20;88.90;;;;;;5006268;28;20034;-71
2023/08/16 04:06:25;;;;;;;6.57;3.40;;;18.10;89.50;;;;;;5010447;28;20124;-71
2023/08/16 04:08:50;;;;;;;11.17;3.17;;;18.00;90.10;;;;;;5019111;28;20041;-71
2023/08/16 04:11:16;;;;;;;5.63;3.50;;;17.90;90.30;;;;;;5017145;28;20022;-70
2023/08/16 04:13:42;;;;;;;5.00;2.87;;;18.00;90.60;;;;;;5020216;28;20060;-70
2023/08/16 04:16:07;;;;;;;9.57;3.37;;;18.10;90.40;;;;;;5011599;28;20108;-72
2023/08/16 04:18:33;;;;;;;12.97;3.20;;;18.10;90.00;;;;;;5017750;28;20420;-72
2023/08/16 04:20:58;;;;;;;7.63;3.27;;;18.20;90.50;;;;;;5011312;28;20113;-72
2023/08/16 04:23:24;;;;;;;5.63;3.23;;;18.00;90.00;;;;;;5012845;28;20033;-71
2023/08/16 04:25:50;;;;;;;6.57;3.33;;;18.10;90.30;;;;;;5011888;28;20033;-72
2023/08/16 04:28:16;;;;;;;6.85;3.70;;;18.00;90.40;;;;;;5009120;28;20026;-67
2023/08/16 04:30:41;;;;;;;5.10;3.33;;;18.00;90.30;;;;;;5016630;28;20079;-66
2023/08/16 04:33:07;;;;;;;6.17;3.27;;;17.90;90.40;;;;;;5011033;28;20018;-66
2023/08/16 04:35:32;;;;;;;5.40;3.50;;;18.00;90.10;;;;;;5011288;28;20546;-69
2023/08/16 04:37:58;;;;;;;4.97;3.20;;;18.00;90.60;;;;;;5012957;28;20029;-66
2023/08/16 04:40:23;;;;;;;6.37;3.83;;;18.00;90.50;;;;;;5006852;28;20050;-67
2023/08/16 04:42:49;;;;;;;6.93;3.17;;;18.00;90.20;;;;;;5010958;28;20425;-65
2023/08/16 04:45:15;;;;;;;7.27;3.23;;;17.80;90.70;;;;;;5006089;28;20034;-67
2023/08/16 04:47:41;;;;;;;4.13;2.90;;;17.80;90.80;;;;;;5001098;28;20026;-69
2023/08/16 04:50:07;;;;;;;5.85;3.40;;;17.70;90.90;;;;;;5009288;28;20325;-66
2023/08/16 04:52:37;;;;;;;4.20;3.47;;;17.70;91.10;;;;;;5003504;28;20025;-68
2023/08/16 04:55:07;;;;;;;6.05;3.40;;;17.60;91.70;;;;;;5006479;28;20164;-69
2023/08/16 04:57:32;;;;;;;7.25;3.20;;;17.80;91.60;;;;;;5006169;28;20030;-70
2023/08/16 04:59:58;;;;;;;10.32;3.78;;;17.90;91.20;;;;;;5002327;28;20374;-67
2023/08/16 05:02:24;;;;;;;6.73;3.93;;;17.90;91.10;;;;;;5009948;28;20065;-66
2023/08/16 05:04:50;;;;;;;7.78;3.67;;;17.80;91.30;;;;;;5009068;28;20092;-70
2023/08/16 05:07:15;;;;;;;7.77;3.57;;;17.70;91.10;;;;;;4999357;28;20030;-69
2023/08/16 05:09:41;;;;;;;7.20;3.23;;;17.80;91.20;;;;;;5007520;28;20071;-66
2023/08/16 05:12:07;;;;;;;4.27;3.70;;;17.70;91.80;;;;;;5006054;28;20394;-69
2023/08/16 05:14:32;;;;;;;8.38;3.83;;;17.70;91.80;;;;;;5004382;28;20334;-70
2023/08/16 05:16:58;;;;;;;5.33;3.47;;;17.70;91.60;;;;;;5004307;28;20049;-68
2023/08/16 05:19:23;;;;;;;6.57;3.13;;;17.60;91.30;;;;;;5013234;28;20425;-70
2023/08/16 05:21:49;;;;;;;4.87;3.60;;;18.00;90.70;;;;;;5004885;28;20027;-70
2023/08/16 05:24:14;;;;;;;5.10;3.57;;;17.90;90.80;;;;;;5006708;28;20034;-70
2023/08/16 05:26:40;;;;;;;11.67;4.17;;;17.90;91.10;;;;;;5006654;28;20272;-70
2023/08/16 05:29:06;;;;;;;9.33;3.73;;;17.90;91.10;;;;;;5004401;28;20070;-70
2023/08/16 05:31:31;;;;;;;7.40;3.27;;;18.00;90.90;;;;;;5002138;28;20025;-66
2023/08/16 05:33:57;;;;;;;4.83;3.37;;;18.20;90.80;;;;;;5006206;28;20034;-66
2023/08/16 05:36:27;;;;;;;10.40;3.80;;;18.30;90.30;;;;;;5010202;28;20022;-69
2023/08/16 05:38:52;;;;;;;5.57;3.80;;;18.40;90.40;;;;;;5001574;28;20033;-68
2023/08/16 05:41:18;;;;;;;5.40;3.43;;;19.50;85.50;;;;;;5003022;28;20080;-67
2023/08/16 05:43:43;;;;;;;7.50;3.40;;;20.90;80.70;;;;;;5012323;28;20070;-66
2023/08/16 05:46:09;;;;;;;5.03;3.03;;;21.80;76.20;;;;;;5004571;28;20494;-73
2023/08/16 05:48:34;;;;;;;5.67;3.63;;;22.00;75.30;;;;;;5001719;28;20033;-71
2023/08/16 05:51:00;;;;;;;9.20;3.23;;;22.70;72.60;;;;;;5009563;28;20030;-73
2023/08/16 05:53:26;;;;;;;5.97;2.60;;;23.10;71.50;;;;;;5007539;28;20033;-72
2023/08/16 05:55:51;;;;;;;5.47;3.30;;;22.20;73.20;;;;;;5006482;28;20026;-67
2023/08/16 05:58:17;;;;;;;7.23;3.23;;;21.00;76.70;;;;;;5007931;28;20563;-68
2023/08/16 06:00:45;;;;;;;6.23;3.60;;;20.70;79.30;;;;;;5004849;28;20289;-71
2023/08/16 06:03:12;;;;;;;6.72;3.05;;;20.50;80.40;;;;;;5005728;28;20026;-73
2023/08/16 06:05:38;;;;;;;8.63;3.22;;;20.60;79.90;;;;;;4998563;28;20688;-74
2023/08/16 06:08:04;;;;;;;4.93;3.13;;;20.50;80.40;;;;;;4998495;28;20520;-73
2023/08/16 06:10:30;;;;;;;8.88;2.90;;;20.10;82.10;;;;;;5010025;28;20030;-71
2023/08/16 06:12:55;;;;;;;7.20;2.83;;;20.10;81.30;;;;;;5001968;28;20030;-74
2023/08/16 06:15:21;;;;;;;9.43;2.40;;;20.10;80.40;;;;;;5010192;28;20036;-74
2023/08/16 06:17:47;;;;;;;7.43;3.28;;;20.10;81.80;;;;;;5005723;28;20029;-75
2023/08/16 06:20:13;;;;;;;8.33;4.03;;;20.30;80.90;;;;;;5003251;28;20577;-74
2023/08/16 06:22:39;;;;;;;;;;;20.80;80.60;;;;;;5003744;28;20378;-73
2023/08/16 06:25:06;;;;;;;5.68;3.10;;;21.00;78.00;;;;;;4997962;28;19985;-73
2023/08/16 06:27:32;;;;;;;6.07;2.90;;;21.00;77.60;;;;;;5001495;28;20025;-74
2023/08/16 06:29:57;;;;;;;4.38;2.90;;;21.70;76.30;;;;;;5008537;28;20038;-72
2023/08/16 06:32:23;;;;;;;4.90;2.43;;;22.10;74.60;;;;;;5000018;28;20034;-70
2023/08/16 06:34:48;;;;;;;4.83;3.10;;;21.70;75.00;;;;;;5010962;28;20150;-70
2023/08/16 06:37:14;;;;;;;4.93;2.70;;;22.30;73.60;;;;;;5003756;28;20832;-70
2023/08/16 06:39:41;;;;;;;12.07;2.92;;;22.90;70.70;;;;;;5007112;28;20110;-73
2023/08/16 06:42:07;;;;;;;5.28;3.08;;;22.70;72.00;;;;;;4999464;28;20062;-74
2023/08/16 06:44:32;;;;;;;6.93;2.60;;;23.30;70.80;;;;;;5000814;28;20061;-74
2023/08/16 06:46:58;;;;;;;4.10;2.47;;;22.90;72.00;;;;;;5001462;28;20499;-72
2023/08/16 06:49:24;;;;;;;6.27;3.23;;;22.10;72.40;;;;;;5007988;28;20038;-72
2023/08/16 06:51:50;;;;;;;;;;;21.90;73.80;;;;;;5002089;28;20029;-70
2023/08/16 06:54:15;;;;;;;9.43;2.90;;;21.90;74.60;;;;;;4998711;28;19925;-71
2023/08/16 06:56:41;;;;;;;11.73;3.30;;;21.90;74.80;;;;;;4998267;28;20014;-71
2023/08/16 06:59:08;;;;;;;8.15;2.90;;;21.80;74.70;;;;;;5005149;28;20502;-71
2023/08/16 07:01:33;;;;;;;11.45;4.07;;;21.90;77.90;;;;;;5002844;28;20483;-71
2023/08/16 07:03:59;;;;;;;10.03;2.90;;;22.00;75.60;;;;;;4998643;28;20044;-70
2023/08/16 07:06:26;;;;;;;5.50;2.57;;;22.00;75.00;;;;;;5009013;28;20033;-71
2023/08/16 07:08:52;;;;;;;3.80;2.83;;;22.00;78.90;;;;;;5006042;28;20645;-71
2023/08/16 07:11:18;;;;;;;7.30;2.92;;;22.30;77.90;;;;;;5005887;28;20038;-71
2023/08/16 07:13:43;;;;;;;5.93;2.70;;;22.50;75.80;;;;;;5011336;28;20485;-72
2023/08/16 07:16:09;;;;;;;7.50;3.23;;;22.40;75.40;;;;;;5001920;28;20437;-71
2023/08/16 07:18:34;;;;;;;9.63;4.47;;;22.40;77.90;;;;;;5006115;28;20075;-71
2023/08/16 07:21:00;;;;;;;4.40;3.00;;;22.80;75.50;;;;;;5011072;28;20046;-68
2023/08/16 07:23:25;;;;;;;3.97;2.63;;;22.70;76.00;;;;;;5006415;28;20428;-68
2023/08/16 07:25:57;;;;;;;8.13;2.87;;;22.70;81.90;;;;;;5009541;28;20061;-68
2023/08/16 07:28:26;;;;;;;4.22;2.95;;;22.90;78.60;;;;;;5012942;28;20026;-67
2023/08/16 07:30:53;;;;;;;7.07;3.20;;;23.30;75.40;;;;;;5016925;28;20393;-68
2023/08/16 07:33:19;;;;;;;5.75;3.30;;;23.70;75.40;;;;;;5006218;28;20030;-67
2023/08/16 07:35:44;;;;;;;9.05;4.50;;;24.00;76.00;;;;;;5007285;28;20088;-67
2023/08/16 07:38:11;;;;;;;6.50;2.97;;;24.20;77.60;;;;;;5018890;28;20060;-68
2023/08/16 07:40:37;;;;;;;5.60;3.30;;;24.30;74.90;;;;;;5008809;28;20034;-68
2023/08/16 07:43:03;;;;;;;12.23;2.97;;;24.30;75.60;;;;;;5008602;28;20045;-67
2023/08/16 07:45:28;;;;;;;4.53;3.17;;;25.00;74.50;;;;;;5014466;28;20159;-68
2023/08/16 07:47:54;;;;;;;6.10;3.20;;;25.10;72.50;;;;;;5009959;28;20636;-68
2023/08/16 07:50:19;;;;;;;8.60;4.17;;;24.70;72.20;;;;;;5012960;28;20037;-68
2023/08/16 07:52:45;;;;;;;5.30;3.43;;;24.50;73.40;;;;;;5017655;28;20412;-67
2023/08/16 07:55:11;;;;;;;5.40;3.30;;;24.40;71.40;;;;;;5012016;28;20038;-67
2023/08/16 07:57:36;;;;;;;5.85;2.83;;;24.30;73.50;;;;;;5015636;28;20026;-67
2023/08/16 08:00:04;;;;;;;6.33;3.20;;;24.60;73.70;;;;;;5016620;28;20038;-67
2023/08/16 08:02:31;;;;;;;8.13;3.15;;;25.70;69.80;;;;;;5018938;28;20260;-67
2023/08/16 08:05:01;;;;;;;4.40;3.20;;;26.30;69.50;;;;;;5017293;28;20030;-67
2023/08/16 08:07:28;;;;;;;7.72;3.40;;;26.10;67.80;;;;;;5015053;28;20029;-67
2023/08/16 08:09:55;;;;;;;11.00;4.65;;;26.20;70.70;;;;;;5019676;28;20045;-67
2023/08/16 08:12:21;;;;;;;4.55;3.40;;;26.50;69.10;;;;;;5018305;28;20417;-67
2023/08/16 08:14:46;;;;;;;5.50;2.80;;;26.40;67.90;;;;;;5010274;28;20030;-67
2023/08/16 08:17:12;;;;;;;3.77;2.97;;;26.10;70.00;;;;;;5017378;28;20041;-67
2023/08/16 08:19:38;;;;;;;3.50;2.90;;;26.10;68.30;;;;;;5018143;28;20040;-67
2023/08/16 08:22:03;;;;;;;7.33;3.17;;;25.80;70.90;;;;;;5014418;28;20847;-68
2023/08/16 08:24:29;;;;;;;7.03;3.25;;;25.70;73.40;;;;;;5012616;28;20037;-67
2023/08/16 08:26:56;;;;;;;5.57;3.60;;;25.80;70.20;;;;;;5016397;28;20049;-68
2023/08/16 08:29:25;;;;;;;9.82;2.95;;;25.90;68.90;;;;;;5022332;28;20273;-67
2023/08/16 08:31:51;;;;;;;5.18;2.72;;;26.00;70.10;;;;;;5017806;28;20041;-67
2023/08/16 08:34:16;;;;;;;;;;;25.80;67.70;;;;;;5012698;28;20108;-67
2023/08/16 08:36:42;;;;;;;7.88;2.58;;;25.70;69.70;;;;;;5015194;28;19971;-67
2023/08/16 08:39:08;;;;;;;11.43;3.40;;;26.40;67.30;;;;;;5010506;28;20042;-67
2023/08/16 08:41:33;;;;;;;10.80;3.67;;;26.30;67.10;;;;;;5011278;28;20033;-67
2023/08/16 08:43:59;;;;;;;7.87;3.60;;;26.40;68.00;;;;;;5009874;28;20045;-67
2023/08/16 08:46:27;;;;;;;6.15;2.72;;;27.00;66.50;;;;;;5015149;28;20523;-67
2023/08/16 08:48:53;;;;;;;4.28;2.97;;;27.60;65.60;;;;;;5015421;28;20099;-68
2023/08/16 08:51:20;;;;;;;6.85;3.22;;;28.10;63.50;;;;;;5013248;28;20041;-68
2023/08/16 08:53:45;;;;;;;;;;;30.00;61.60;;;;;;5003848;28;20493;-67
2023/08/16 08:56:15;;;;;;;5.30;3.53;;;31.20;58.00;;;;;;5011349;28;19909;-68
2023/08/16 08:58:46;;;;;;;3.38;2.85;;;30.20;59.50;;;;;;5006543;28;20040;-68
2023/08/16 09:01:13;;;;;;;6.60;2.88;;;29.60;62.40;;;;;;5011208;28;20430;-68
2023/08/16 09:03:43;;;;;;;9.55;2.63;;;30.60;62.70;;;;;;5016501;28;20025;-68
2023/08/16 09:06:09;;;;;;;8.90;2.90;;;30.40;56.30;;;;;;5008280;28;20061;-68
2023/08/16 09:08:36;;;;;;;4.30;2.42;;;29.60;61.90;;;;;;5007374;28;20592;-68
2023/08/16 09:11:02;;;;;;;7.15;2.88;;;29.20;60.30;;;;;;5017159;28;20073;-68
2023/08/16 09:13:29;;;;;;;5.80;3.33;;;29.10;59.10;;;;;;5016479;28;20029;-68
2023/08/16 09:15:55;;;;;;;3.30;2.65;;;29.20;58.20;;;;;;5011206;28;20489;-68
2023/08/16 09:18:22;;;;;;;4.03;2.83;;;29.30;59.10;;;;;;5015300;28;20037;-67
2023/08/16 09:20:49;;;;;;;8.65;2.88;;;31.00;58.40;;;;;;5014160;28;20068;-68
2023/08/16 09:23:17;;;;;;;4.20;2.67;;;35.10;53.00;;;;;;5011166;28;20053;-68
2023/08/16 09:25:44;;;;;;;3.97;3.00;;;36.70;49.30;;;;;;5008419;28;20037;-68
2023/08/16 09:28:14;;;;;;;5.38;2.58;;;38.00;48.60;;;;;;5008526;28;20033;-68
2023/08/16 09:30:43;;;;;;;4.70;2.60;;;38.00;48.10;;;;;;5013948;28;20136;-68
2023/08/16 09:33:12;;;;;;;3.30;2.50;;;37.40;48.60;;;;;;5012262;28;20036;-68
2023/08/16 09:35:44;;;;;;;7.07;3.15;;;35.10;49.40;;;;;;5017269;28;20038;-68
2023/08/16 09:38:12;;;;;;;7.88;2.50;;;36.80;49.00;;;;;;5014857;28;20040;-68
2023/08/16 09:40:47;;;;;;;6.45;3.17;;;39.00;47.80;;;;;;5002473;28;20038;-68
2023/08/16 09:43:13;;;;;;;11.25;3.50;;;40.00;46.90;;;;;;5019460;28;20048;-68
2023/08/16 09:45:40;;;;;;;17.13;3.55;;;40.60;47.60;;;;;;5018544;28;20025;-68
2023/08/16 09:48:08;;;;;;;7.55;3.15;;;39.80;47.50;;;;;;5013899;28;20037;-68
2023/08/16 09:50:35;;;;;;;5.65;3.00;;;39.30;46.80;;;;;;5015861;28;20083;-68
2023/08/16 09:53:03;;;;;;;4.22;2.65;;;40.40;45.90;;;;;;5007135;28;20468;-68
2023/08/16 09:55:31;;;;;;;3.60;2.50;;;39.90;44.90;;;;;;5010248;28;20741;-69
2023/08/16 09:57:58;;;;;;;6.60;3.08;;;38.30;44.90;;;;;;5012380;28;20045;-69
2023/08/16 10:00:26;;;;;;;5.55;2.67;;;39.40;47.10;;;;;;5016791;28;20184;-69
2023/08/16 10:02:52;;;;;;;4.95;2.53;;;37.40;47.00;;;;;;5004239;28;20057;-68
2023/08/16 10:05:18;;;;;;;4.18;2.45;;;40.20;46.50;;;;;;5010380;28;20034;-68
2023/08/16 10:07:47;;;;;;;7.90;2.40;;;37.20;46.40;;;;;;5012263;28;20037;-68
2023/08/16 10:10:13;;;;;;;10.52;2.85;;;35.40;47.80;;;;;;5013663;28;20037;-68
2023/08/16 10:12:39;;;;;;;4.93;3.00;;;35.40;50.80;;;;;;5018909;28;20040;-68
2023/08/16 10:15:05;;;;;;;4.60;2.20;;;38.40;50.70;;;;;;5016851;28;20518;-68
2023/08/16 10:17:33;;;;;;;4.57;2.65;;;37.00;46.10;;;;;;5001887;28;20128;-68
2023/08/16 10:20:04;;;;;;;6.60;3.17;;;38.10;49.60;;;;;;5002597;28;20049;-68
2023/08/16 10:22:37;;;;;;;5.45;2.50;;;37.00;46.80;;;;;;5016299;28;20030;-68
2023/08/16 10:25:12;;;;;;;5.63;2.40;;;39.60;46.60;;;;;;5011290;28;20431;-66
2023/08/16 10:27:41;;;;;;;5.75;2.70;;;40.90;43.80;;;;;;5007757;28;20022;-66
2023/08/16 10:30:11;;;;;;;6.35;2.63;;;41.20;45.40;;;;;;5011296;28;20037;-65
2023/08/16 10:32:40;;;;;;;3.55;2.30;;;40.60;44.60;;;;;;5017642;28;20025;-67
2023/08/16 10:35:07;;;;;;;3.30;2.47;;;40.50;43.30;;;;;;5003021;28;20121;-67
2023/08/16 10:37:33;;;;;;;6.28;2.60;;;40.40;44.80;;;;;;5000376;28;20033;-67
2023/08/16 10:39:59;;;;;;;4.57;2.25;;;40.10;46.70;;;;;;5009222;28;20059;-67
2023/08/16 10:42:26;;;;;;;5.45;2.10;;;37.90;47.40;;;;;;5009405;28;20128;-67
2023/08/16 10:44:52;;;;;;;3.28;2.08;;;35.90;49.10;;;;;;5016468;28;20045;-67
2023/08/16 10:47:28;;;;;;;2.75;1.88;;;34.80;50.00;;;;;;5008309;28;20025;-67
2023/08/16 10:49:54;;;;;;;4.20;2.28;;;33.90;48.70;;;;;;5003294;28;20128;-67
2023/08/16 10:52:30;;;;;;;6.13;2.30;;;33.10;51.60;;;;;;5006179;28;20113;-67
2023/08/16 10:54:55;;;;;;;5.90;1.95;;;32.80;53.10;;;;;;5007072;28;20038;-67
2023/08/16 10:57:25;;;;;;;4.07;1.88;;;32.60;52.80;;;;;;5018358;28;20402;-67
2023/08/16 11:00:02;;;;;;;3.40;2.10;;;32.50;51.90;;;;;;5010202;28;20158;-68
2023/08/16 11:02:30;;;;;;;5.88;2.20;;;32.40;50.90;;;;;;5015889;28;20136;-68
2023/08/16 11:04:56;;;;;;;8.35;2.17;;;32.40;50.70;;;;;;5009734;28;20121;-68
2023/08/16 11:07:22;;;;;;;;;;;32.40;52.20;;;;;;5009056;28;20497;-67
2023/08/16 11:09:48;;;;;;;5.80;2.20;;;32.20;50.70;;;;;;5015339;28;19917;-68
2023/08/16 11:12:15;;;;;;;;;;;32.10;53.60;;;;;;5016222;28;20096;-67
2023/08/16 11:14:43;;;;;;;4.13;1.85;;;32.10;52.00;;;;;;5006080;28;20008;-68
2023/08/16 11:17:09;;;;;;;7.22;2.67;;;32.30;51.70;;;;;;5008342;28;20031;-68
2023/08/16 11:19:34;;;;;;;;;;;32.30;51.40;;;;;;5014825;28;20048;-68
2023/08/16 11:22:01;;;;;;;5.15;1.73;;;32.20;52.00;;;;;;5024364;28;19910;-69
2023/08/16 11:24:27;;;;;;;8.02;2.13;;;32.20;48.70;;;;;;5022407;28;20049;-67
2023/08/16 11:26:53;;;;;;;7.50;2.08;;;32.10;49.40;;;;;;5014491;28;20026;-67
2023/08/16 11:29:19;;;;;;;;;;;32.10;52.30;;;;;;5015937;28;20037;-67
2023/08/16 11:31:44;;;;;;;5.93;1.98;;;32.20;51.90;;;;;;5010776;28;20387;-68
2023/08/16 11:34:10;;;;;;;4.40;2.03;;;32.30;51.70;;;;;;5005105;28;20078;-68
2023/08/16 11:36:37;;;;;;;;;;;32.30;50.50;;;;;;5004493;28;20488;-68
2023/08/16 11:39:04;;;;;;;5.40;1.52;;;32.30;50.10;;;;;;5006988;28;19917;-68
2023/08/16 11:41:30;;;;;;;9.20;2.03;;;32.20;50.30;;;;;;5004790;28;20787;-67
2023/08/16 11:44:00;;;;;;;3.92;2.05;;;32.30;51.50;;;;;;5010051;28;20025;-68
2023/08/16 11:46:26;;;;;;;2.78;1.90;;;32.50;50.20;;;;;;5002001;28;20060;-67
2023/08/16 11:48:51;;;;;;;;;;;32.70;49.90;;;;;;5008040;28;20236;-67
2023/08/16 11:51:17;;;;;;;6.38;2.10;;;32.70;48.50;;;;;;5009651;28;19920;-68
2023/08/16 11:53:43;;;;;;;;;;;32.70;47.90;;;;;;4998752;28;20121;-68
2023/08/16 11:56:09;;;;;;;7.32;1.75;;;32.70;48.30;;;;;;5008538;28;19968;-67
2023/08/16 11:58:48;;;;;;;;;;;32.70;48.20;;;;;;5006195;28;20535;-67
2023/08/16 12:01:14;;;;;;;5.47;1.65;;;32.80;50.10;;;;;;5004203;28;19932;-68
2023/08/16 12:03:42;;;;;;;6.95;1.70;;;32.70;48.80;;;;;;5006651;28;20457;-67
2023/08/16 12:06:09;;;;;;;2.75;1.75;;;32.60;48.90;;;;;;5011022;28;20038;-67
2023/08/16 12:08:35;;;;;;;4.82;1.67;;;32.40;47.20;;;;;;5013698;28;20040;-67
2023/08/16 12:11:02;;;;;;;5.43;1.98;;;32.60;47.90;;;;;;5005221;28;20040;-66
2023/08/16 12:13:28;;;;;;;7.60;2.00;;;32.60;47.50;;;;;;5032865;28;20037;-69
2023/08/16 12:15:54;;;;;;;;;;;32.60;50.10;;;;;;5010874;28;20417;-66
2023/08/16 12:18:23;;;;;;;2.63;1.67;;;32.80;51.50;;;;;;5011167;28;19917;-67
2023/08/16 12:20:52;;;;;;;2.28;1.90;;;33.00;48.40;;;;;;5011602;28;20092;-67
2023/08/16 12:23:19;;;;;;;7.55;2.13;;;32.90;47.00;;;;;;5010403;28;20080;-67
2023/08/16 12:25:45;;;;;;;2.63;2.15;;;33.10;44.90;;;;;;5010120;28;20030;-67
2023/08/16 12:28:11;;;;;;;2.38;1.77;;;33.10;45.30;;;;;;5012453;28;20095;-67
2023/08/16 12:30:37;;;;;;;;;;;33.10;46.30;;;;;;5013627;28;20489;-67
2023/08/16 12:33:09;;;;;;;5.82;2.10;;;33.00;44.10;;;;;;5006263;28;20359;-66
2023/08/16 12:35:35;;;;;;;5.88;2.00;;;33.00;46.40;;;;;;5004462;28;20034;-67
2023/08/16 12:38:02;;;;;;;;;;;33.00;49.60;;;;;;5007581;28;20117;-67
2023/08/16 12:40:30;;;;;;;5.10;2.33;;;33.20;50.80;;;;;;5007968;28;20282;-67
2023/08/16 12:42:55;;;;;;;2.88;1.90;;;33.20;48.80;;;;;;5002020;28;20501;-67
2023/08/16 12:45:21;;;;;;;;;;;33.20;48.40;;;;;;5016141;28;20042;-67
2023/08/16 12:47:46;;;;;;;3.50;2.38;;;33.20;50.10;;;;;;5006897;28;20431;-67